createdAt,value
2023-03-06T00:00:20.100Z,1012
2023-03-06T00:05:20.110Z,1012.1
2023-03-06T00:10:20.109Z,1012
2023-03-06T00:15:20.103Z,1012
2023-03-06T00:20:20.110Z,1011.8
2023-03-06T00:25:20.131Z,1011.7
2023-03-06T00:30:20.109Z,1011.8
2023-03-06T00:35:20.168Z,1011.7
2023-03-06T00:40:20.110Z,1011.6
2023-03-06T00:45:20.122Z,1011.6
2023-03-06T00:50:20.109Z,1011.6
2023-03-06T00:55:20.115Z,1011.7
2023-03-06T01:00:20.098Z,1011.5
2023-03-06T01:05:20.104Z,1011.5
2023-03-06T01:10:20.099Z,1011.3
2023-03-06T01:15:20.110Z,1011.3
2023-03-06T01:20:20.100Z,1011.3
2023-03-06T01:25:20.100Z,1011.2
2023-03-06T01:30:20.116Z,1011.2
2023-03-06T01:35:20.164Z,1011.2
2023-03-06T01:40:20.109Z,1011
2023-03-06T01:45:20.114Z,1011
2023-03-06T01:50:20.098Z,1010.9
2023-03-06T01:55:20.111Z,1010.9
2023-03-06T02:00:20.104Z,1010.8
2023-03-06T02:05:20.106Z,1010.7
2023-03-06T02:10:20.107Z,1010.6
2023-03-06T02:15:20.112Z,1010.5
2023-03-06T02:20:20.115Z,1010.5
2023-03-06T02:25:20.115Z,1010.4
2023-03-06T02:30:20.115Z,1010.4
2023-03-06T02:35:20.109Z,1010.3
2023-03-06T02:40:20.126Z,1010.3
2023-03-06T02:45:20.110Z,1010.3
2023-03-06T02:50:20.110Z,1010.2
2023-03-06T02:55:20.117Z,1010
2023-03-06T03:00:20.101Z,1010
2023-03-06T03:05:20.105Z,1010.1
2023-03-06T03:10:20.106Z,1010
2023-03-06T03:15:20.095Z,1010.1
2023-03-06T03:20:20.095Z,1010
2023-03-06T03:25:20.119Z,1009.9
2023-03-06T03:30:20.115Z,1009.9
2023-03-06T03:35:20.155Z,1009.8
2023-03-06T03:40:20.106Z,1009.9
2023-03-06T03:45:20.113Z,1009.8
2023-03-06T03:50:20.115Z,1009.7
2023-03-06T03:55:20.109Z,1009.7
2023-03-06T04:00:20.105Z,1009.7
2023-03-06T04:05:20.121Z,1009.6
2023-03-06T04:10:20.102Z,1009.7
2023-03-06T04:15:20.109Z,1009.6
2023-03-06T04:20:20.103Z,1009.5
2023-03-06T04:25:20.116Z,1009.5
2023-03-06T04:30:20.111Z,1009.4
2023-03-06T04:35:20.147Z,1009.4
2023-03-06T04:40:20.111Z,1009.4
2023-03-06T04:45:20.107Z,1009.3
2023-03-06T04:50:20.112Z,1009.3
2023-03-06T04:55:20.111Z,1009.2
2023-03-06T05:00:20.104Z,1009.2
2023-03-06T05:05:20.098Z,1009.1
2023-03-06T05:10:20.096Z,1009.1
2023-03-06T05:15:20.139Z,1009
2023-03-06T05:20:20.107Z,1009
2023-03-06T05:25:20.109Z,1008.9
2023-03-06T05:30:20.102Z,1008.9
2023-03-06T05:35:20.158Z,1008.9
2023-03-06T05:40:20.101Z,1009
2023-03-06T05:45:20.100Z,1008.9
2023-03-06T05:50:20.111Z,1008.9
2023-03-06T05:55:20.114Z,1008.9
2023-03-06T06:00:20.108Z,1008.9
2023-03-06T06:05:20.115Z,1008.9
2023-03-06T06:10:20.095Z,1008.9
2023-03-06T06:15:20.092Z,1009
2023-03-06T06:20:20.100Z,1009
2023-03-06T06:25:20.107Z,1009
2023-03-06T06:30:20.103Z,1008.9
2023-03-06T06:35:20.205Z,1008.9
2023-03-06T06:40:20.098Z,1009
2023-03-06T06:45:20.102Z,1008.9
2023-03-06T06:50:20.102Z,1009.1
2023-03-06T06:55:20.108Z,1008.9
2023-03-06T07:00:20.097Z,1008.9
2023-03-06T07:05:21.056Z,1008.9
2023-03-06T07:10:21.126Z,1008.9
2023-03-06T07:15:20.106Z,1008.9
2023-03-06T07:20:20.112Z,1009
2023-03-06T07:25:20.120Z,1009.1
2023-03-06T07:30:20.099Z,1009.1
2023-03-06T07:35:21.000Z,1009.1
2023-03-06T07:40:20.105Z,1009.1
2023-03-06T07:45:20.129Z,1009.1
2023-03-06T07:50:20.129Z,1009.2
2023-03-06T07:55:20.115Z,1009.3
2023-03-06T08:00:20.108Z,1009.2
2023-03-06T08:05:20.119Z,1009.2
2023-03-06T08:10:20.113Z,1009.3
2023-03-06T08:15:20.114Z,1009.2
2023-03-06T08:20:20.119Z,1009.3
2023-03-06T08:25:20.148Z,1009.2
2023-03-06T08:30:20.109Z,1009.3
2023-03-06T08:35:20.171Z,1009.3
2023-03-06T08:40:20.107Z,1009.4
2023-03-06T08:45:20.105Z,1009.4
2023-03-06T08:50:20.102Z,1009.4
2023-03-06T08:55:20.100Z,1009.4
2023-03-06T09:00:20.124Z,1009.3
2023-03-06T09:05:20.098Z,1009.3
2023-03-06T09:10:20.110Z,1009.3
2023-03-06T09:15:20.120Z,1009.4
2023-03-06T09:20:20.104Z,1009.3
2023-03-06T09:25:20.136Z,1009.3
2023-03-06T09:30:20.114Z,1009.3
2023-03-06T09:35:20.122Z,1009.3
2023-03-06T09:40:20.115Z,1009.3
2023-03-06T09:45:20.106Z,1009.4
2023-03-06T09:50:20.110Z,1009.3
2023-03-06T09:55:20.108Z,1009.3
2023-03-06T10:00:20.100Z,1009.3
2023-03-06T10:05:20.114Z,1009.4
2023-03-06T10:10:20.100Z,1009.4
2023-03-06T10:15:20.102Z,1009.4
2023-03-06T10:20:20.097Z,1009.3
2023-03-06T10:25:20.106Z,1009.3
2023-03-06T10:30:20.101Z,1009.3
2023-03-06T10:35:20.172Z,1009.3
2023-03-06T10:40:20.136Z,1009.3
2023-03-06T10:45:20.098Z,1009.3
2023-03-06T10:50:20.195Z,1009.3
2023-03-06T10:55:20.109Z,1009.2
2023-03-06T11:00:20.701Z,1009.2
2023-03-06T11:05:20.126Z,1009.2
2023-03-06T11:10:20.206Z,1009.2
2023-03-06T11:15:20.107Z,1009.2
2023-03-06T11:20:20.097Z,1009.1
2023-03-06T11:25:20.111Z,1009.1
2023-03-06T11:30:20.120Z,1009
2023-03-06T11:35:20.201Z,1009
2023-03-06T11:40:20.112Z,1009
2023-03-06T11:45:20.115Z,1008.9
2023-03-06T11:50:20.108Z,1008.9
2023-03-06T11:55:20.169Z,1008.8
2023-03-06T12:00:20.103Z,1008.7
2023-03-06T12:05:20.248Z,1008.7
2023-03-06T12:10:20.124Z,1008.7
2023-03-06T12:15:20.113Z,1008.8
2023-03-06T12:20:20.104Z,1008.9
2023-03-06T12:25:20.108Z,1009
2023-03-06T12:30:20.109Z,1008.9
2023-03-06T12:35:20.171Z,1008.8
2023-03-06T12:40:20.109Z,1008.8
2023-03-06T12:45:20.105Z,1008.8
2023-03-06T12:50:20.109Z,1008.7
2023-03-06T12:55:23.254Z,1008.6
2023-03-06T13:00:20.108Z,1008.6
2023-03-06T13:05:20.111Z,1008.6
2023-03-06T13:10:20.101Z,1008.5
2023-03-06T13:15:20.108Z,1008.5
2023-03-06T13:20:20.102Z,1008.5
2023-03-06T13:25:20.162Z,1008.4
2023-03-06T13:30:20.109Z,1008.4
2023-03-06T13:35:20.215Z,1008.5
2023-03-06T13:40:20.118Z,1008.5
2023-03-06T13:45:20.111Z,1008.4
2023-03-06T13:50:20.097Z,1008.4
2023-03-06T13:55:20.117Z,1008.4
2023-03-06T14:00:20.101Z,1008.3
2023-03-06T14:05:20.121Z,1008.2
2023-03-06T14:10:20.119Z,1008.2
2023-03-06T14:15:20.147Z,1008.1
2023-03-06T14:20:20.106Z,1008.1
2023-03-06T14:25:20.101Z,1008.1
2023-03-06T14:30:20.100Z,1008
2023-03-06T14:35:20.169Z,1007.9
2023-03-06T14:40:20.112Z,1007.9
2023-03-06T14:45:20.129Z,1007.9
2023-03-06T14:50:20.121Z,1007.8
2023-03-06T14:55:20.107Z,1007.8
2023-03-06T15:00:20.120Z,1007.8
2023-03-06T15:05:20.104Z,1007.9
2023-03-06T15:10:20.109Z,1007.9
2023-03-06T15:15:20.102Z,1007.8
2023-03-06T15:20:20.098Z,1007.8
2023-03-06T15:25:20.121Z,1007.8
2023-03-06T15:30:20.099Z,1007.8
2023-03-06T15:35:20.122Z,1007.8
2023-03-06T15:40:20.124Z,1007.8
2023-03-06T15:45:20.104Z,1007.9
2023-03-06T15:50:20.122Z,1007.8
2023-03-06T15:55:20.118Z,1007.9
2023-03-06T16:00:27.177Z,1007.9
2023-03-06T16:05:20.110Z,1007.9
2023-03-06T16:10:20.129Z,1007.8
2023-03-06T16:15:20.115Z,1007.8
2023-03-06T16:20:20.104Z,1007.7
2023-03-06T16:25:20.106Z,1007.7
2023-03-06T16:30:20.106Z,1007.8
2023-03-06T16:35:20.142Z,1007.8
2023-03-06T16:40:20.108Z,1007.9
2023-03-06T16:45:20.108Z,1007.9
2023-03-06T16:50:20.111Z,1007.9
2023-03-06T16:55:20.127Z,1008.1
2023-03-06T17:00:20.118Z,1008
2023-03-06T17:05:20.158Z,1008
2023-03-06T17:10:20.124Z,1008.1
2023-03-06T17:15:20.106Z,1008
2023-03-06T17:20:20.099Z,1008
2023-03-06T17:25:20.124Z,1008.1
2023-03-06T17:30:20.119Z,1008.1
2023-03-06T17:35:20.172Z,1008.2
2023-03-06T17:40:20.100Z,1008.1
2023-03-06T17:45:20.111Z,1008.1
2023-03-06T17:50:20.104Z,1008.1
2023-03-06T17:55:20.095Z,1008.3
2023-03-06T18:00:20.093Z,1008.3
2023-03-06T18:05:20.105Z,1008.3
2023-03-06T18:10:20.090Z,1008.3
2023-03-06T18:15:20.093Z,1008.3
2023-03-06T18:20:20.089Z,1008.3
2023-03-06T18:25:20.112Z,1008.3
2023-03-06T18:30:20.116Z,1008.3
2023-03-06T18:35:20.159Z,1008.3
2023-03-06T18:40:20.102Z,1008.2
2023-03-06T18:45:20.104Z,1008.2
2023-03-06T18:50:20.105Z,1008.3
2023-03-06T18:55:20.099Z,1008.3
2023-03-06T19:00:20.092Z,1008.3
2023-03-06T19:05:20.109Z,1008.3
2023-03-06T19:10:20.109Z,1008.3
2023-03-06T19:15:20.108Z,1008.3
2023-03-06T19:20:20.093Z,1008.3
2023-03-06T19:25:20.109Z,1008.3
2023-03-06T19:30:20.108Z,1008.2
2023-03-06T19:35:20.126Z,1008.3
2023-03-06T19:40:20.107Z,1008.2
2023-03-06T19:45:20.111Z,1008.2
2023-03-06T19:50:20.108Z,1008.2
2023-03-06T19:55:20.116Z,1008.3
2023-03-06T20:00:20.117Z,1008.2
2023-03-06T20:05:20.133Z,1008.1
2023-03-06T20:10:20.129Z,1008.2
2023-03-06T20:15:20.108Z,1008.3
2023-03-06T20:20:20.110Z,1008.2
2023-03-06T20:25:20.108Z,1008.1
2023-03-06T20:30:20.100Z,1008.2
2023-03-06T20:35:20.107Z,1008.1
2023-03-06T20:40:20.116Z,1008.1
2023-03-06T20:45:20.094Z,1008.1
2023-03-06T20:50:20.100Z,1008.2
2023-03-06T20:55:20.108Z,1008.1
2023-03-06T21:00:20.099Z,1008
2023-03-06T21:05:20.108Z,1008
2023-03-06T21:10:20.100Z,1008
2023-03-06T21:15:20.114Z,1008
2023-03-06T21:20:20.099Z,1007.9
2023-03-06T21:25:20.110Z,1007.8
2023-03-06T21:30:20.117Z,1007.8
2023-03-06T21:35:20.111Z,1007.9
2023-03-06T21:40:20.116Z,1007.8
2023-03-06T21:45:20.251Z,1007.8
2023-03-06T21:50:20.121Z,1007.9
2023-03-06T21:55:20.125Z,1007.9
2023-03-06T22:00:20.111Z,1007.8
2023-03-06T22:05:20.111Z,1007.8
2023-03-06T22:10:20.107Z,1007.7
2023-03-06T22:15:20.108Z,1007.8
2023-03-06T22:20:20.118Z,1007.6
2023-03-06T22:25:20.116Z,1007.6
2023-03-06T22:30:20.112Z,1007.6
2023-03-06T22:35:20.107Z,1007.6
2023-03-06T22:40:20.099Z,1007.4
2023-03-06T22:45:20.105Z,1007.4
2023-03-06T22:50:20.108Z,1007.4
2023-03-06T22:55:20.118Z,1007.4
2023-03-06T23:00:20.110Z,1007.3
2023-03-06T23:05:20.108Z,1007.3
2023-03-06T23:10:20.108Z,1007.3
2023-03-06T23:15:20.106Z,1007.2
2023-03-06T23:20:20.109Z,1007.3
2023-03-06T23:25:20.110Z,1007.2
2023-03-06T23:30:20.111Z,1007.2
2023-03-06T23:35:20.121Z,1007.1
2023-03-06T23:40:20.114Z,1007.2
2023-03-06T23:45:20.110Z,1007
2023-03-06T23:50:20.114Z,1007
2023-03-06T23:55:20.110Z,1007
